Kamp-Lintfort Airport

EDLC · North Rhine-Westphalia, 德国

罗盘
风向 的 风向 290° Kamp-Lintfort Airport 7/25
风: 10 kt, 3 beaufort

8 kt

6 kt
改变
0 ft 1.000 2.000 3.000 4.000 5.000
CAVOK
METAR EDLN 301750Z 29010KT CAVOK 06/02 Q1022

METAR Kamp-Lintfort Airport - EDLC

Kamp-Lintfort Airport是,德国中的小机场。 该机场有一条跑道: 7/25. 该领域的国际民航组织标志是EDLC.

这份报告是针对2023年1月30日 18:50, 当地时间在Mönchengladbach Airport进行的。

机场观察

风向为290°,速度为10 kt。

天气为CAVOK。这意味着在5.000 ft或MSA(最低安全高度)以下(以较高者为准)以下没有云。这也意味着没有观测到积雨云或高耸的积云,可见度为10 km 或者更多或更高。此外,不会有雾,降雨或其他重要天气。

温度为6 °C,阵风为1 °C。 露点为2 °C,相对湿度为76%。 海平面上的气压为1022 hPa (QNH)。

白天

今天,太阳从08:15升起,在17:18降落。 这适用于Kamp-Lintfort Airport,世界夏令时可能有所不同。 当地时间与世界标准时间之间的时差为+1 小时。 当前,没有夏令时有效。

公司介绍

我们没有关于这个机场的公司信息。

体会

到Vliegles.nl去找飞行课程,跳伞和其他飞行体验。 浏览页面,了解Kamp-Lintfort Airport附近所有可用的活动。 你也可以使用搜索功能来寻找你所在地附近的特定飞行课程、跳伞或其他飞行体验。

跑道

Id 标题 侧风 逆风 侧风 %
7/25 070°-250° 6 kt 8 kt 64 %

逆风成分最大的方向会被突出显示,并用于横风计算。 这并不一定意味着这个方向在使用。

温度 & 天气

温度 6 °C
露点 2 °C
相对湿度 76%
风寒 1 °C
Kp-index 0 (0-9)

白天

日出
08:14 (12:56)
中午
12:47
日落
17:20

小工具

你想在你的网站上有一个关于Kamp-Lintfort Airport的当前航空天气(METAR)的小部件吗?

显示HTML代码

我们和第三方通过cookies跟踪您在我们网站上的互联网行为。如果你继续,我们认为你同意我们的饼干政策